K2LS

Galliano Heliport

Galliano, Louisiana, USA
METAR K2LS 151835Z AUTO 18012KT 10SM BKN031 OVC037 20/17 A2991 RMK AO2
Observed Flight Rules
Feb-15 @ 18:35 UTC (35 minutes ago) Visual Flight Rules
Wind Visibility Clouds
180° at 12 knots 10 miles
  • Broken at 3,100' AGL
  • Overcast at 3,700' AGL
Temperatures Readings
Current 20°C / 68°F
Dewpoint 17°C / 63°F
Humidity 83%
Altimeter 29.91" Hg
Pressure 1012.92 hPa
Elevation -2
METAR K2LS 151835Z AUTO 18012KT 10SM BKN031 OVC037 20/17 A2991 RMK AO2
Observed Flight Rules
Feb-15 @ 18:35 UTC
(35 minutes ago)
VFR
Wind Visibility
180° at 12 knots 10 miles
Clouds
  • Broken at 3,100' AGL
  • Overcast at 3,700' AGL
Temperature Dewpoint
20°C / 68°F 17°C / 63°F
Humidity Altimeter Pressure
83% 29.91" Hg 1012.92 hPa